Terminal Aerodrome Forecast
Issued by NWS

Home | Current Version | Previous Version | Text Only | Print | Product List | Glossary On
Versions: 1 2 3 4 5 6 7 8 9 10 11 12 13 14 15 16 17 18 19
000
FTUS43 KICT 021700
TAFRSL
TAF
KRSL 021726Z 0218/0318 34016G23KT P6SM VCSH SCT015 BKN030
      TEMPO 0218/0220 -SHRA BKN015
     FM022000 34015G22KT P6SM SCT035
     FM030000 33009KT P6SM SKC
     FM030300 24007KT P6SM SKC
     FM030900 34022G30KT P6SM SCT025 BKN100=

USA.gov is the U.S. government's official web portal to all federal, state and local government web resources and services.